sensor_id;sensor_type;location;lat;lon;timestamp;P1;durP1;ratioP1;P2;durP2;ratioP2
4232;SDS011;2130;48.472;11.934;2023-05-19T00:00:29;29.00;;;1.70;;
4232;SDS011;2130;48.472;11.934;2023-05-19T00:02:59;28.10;;;1.40;;
4232;SDS011;2130;48.472;11.934;2023-05-19T00:05:30;27.50;;;1.60;;
4232;SDS011;2130;48.472;11.934;2023-05-19T00:08:00;29.37;;;1.50;;
4232;SDS011;2130;48.472;11.934;2023-05-19T00:10:29;30.13;;;1.80;;
4232;SDS011;2130;48.472;11.934;2023-05-19T00:12:59;28.70;;;1.63;;
4232;SDS011;2130;48.472;11.934;2023-05-19T00:15:28;26.87;;;1.27;;
4232;SDS011;2130;48.472;11.934;2023-05-19T00:17:57;28.00;;;1.83;;
4232;SDS011;2130;48.472;11.934;2023-05-19T00:20:25;29.80;;;2.10;;
4232;SDS011;2130;48.472;11.934;2023-05-19T00:22:54;28.97;;;1.70;;
4232;SDS011;2130;48.472;11.934;2023-05-19T00:25:23;30.37;;;1.73;;
4232;SDS011;2130;48.472;11.934;2023-05-19T00:27:51;30.60;;;1.83;;
4232;SDS011;2130;48.472;11.934;2023-05-19T00:30:19;28.80;;;1.60;;
4232;SDS011;2130;48.472;11.934;2023-05-19T00:32:48;29.20;;;1.40;;
4232;SDS011;2130;48.472;11.934;2023-05-19T00:35:17;28.20;;;1.80;;
4232;SDS011;2130;48.472;11.934;2023-05-19T00:37:45;29.43;;;1.50;;
4232;SDS011;2130;48.472;11.934;2023-05-19T00:40:15;28.07;;;1.60;;
4232;SDS011;2130;48.472;11.934;2023-05-19T00:42:44;28.77;;;1.50;;
4232;SDS011;2130;48.472;11.934;2023-05-19T00:45:12;29.07;;;1.60;;
4232;SDS011;2130;48.472;11.934;2023-05-19T00:47:41;28.07;;;1.40;;
4232;SDS011;2130;48.472;11.934;2023-05-19T00:50:09;29.27;;;1.80;;
4232;SDS011;2130;48.472;11.934;2023-05-19T00:52:37;29.57;;;1.50;;
4232;SDS011;2130;48.472;11.934;2023-05-19T00:55:06;30.10;;;2.00;;
4232;SDS011;2130;48.472;11.934;2023-05-19T00:57:37;29.63;;;1.50;;
4232;SDS011;2130;48.472;11.934;2023-05-19T01:00:07;27.90;;;1.33;;
4232;SDS011;2130;48.472;11.934;2023-05-19T01:02:37;28.53;;;1.90;;
4232;SDS011;2130;48.472;11.934;2023-05-19T01:05:06;29.50;;;1.60;;
4232;SDS011;2130;48.472;11.934;2023-05-19T01:07:35;28.80;;;1.50;;
4232;SDS011;2130;48.472;11.934;2023-05-19T01:10:04;28.90;;;1.60;;
4232;SDS011;2130;48.472;11.934;2023-05-19T01:12:33;30.07;;;1.40;;
4232;SDS011;2130;48.472;11.934;2023-05-19T01:15:03;32.50;;;1.87;;
4232;SDS011;2130;48.472;11.934;2023-05-19T01:17:34;28.17;;;1.40;;
4232;SDS011;2130;48.472;11.934;2023-05-19T01:20:09;29.83;;;1.73;;
4232;SDS011;2130;48.472;11.934;2023-05-19T01:22:49;28.47;;;1.50;;
4232;SDS011;2130;48.472;11.934;2023-05-19T01:25:54;27.90;;;1.50;;
4232;SDS011;2130;48.472;11.934;2023-05-19T01:31:37;26.80;;;1.60;;
4232;SDS011;2130;48.472;11.934;2023-05-19T01:34:08;27.60;;;1.53;;
4232;SDS011;2130;48.472;11.934;2023-05-19T01:36:38;29.07;;;1.60;;
4232;SDS011;2130;48.472;11.934;2023-05-19T01:39:11;28.80;;;1.60;;
4232;SDS011;2130;48.472;11.934;2023-05-19T01:41:41;27.87;;;1.40;;
4232;SDS011;2130;48.472;11.934;2023-05-19T01:44:11;29.43;;;1.77;;
4232;SDS011;2130;48.472;11.934;2023-05-19T01:46:41;30.00;;;1.50;;
4232;SDS011;2130;48.472;11.934;2023-05-19T01:49:11;29.40;;;1.50;;
4232;SDS011;2130;48.472;11.934;2023-05-19T01:51:39;29.20;;;1.60;;
4232;SDS011;2130;48.472;11.934;2023-05-19T01:54:08;28.60;;;1.27;;
4232;SDS011;2130;48.472;11.934;2023-05-19T01:56:40;28.70;;;1.37;;
4232;SDS011;2130;48.472;11.934;2023-05-19T01:59:16;29.37;;;1.57;;
4232;SDS011;2130;48.472;11.934;2023-05-19T02:01:52;29.70;;;1.73;;
4232;SDS011;2130;48.472;11.934;2023-05-19T02:04:23;27.30;;;1.50;;
4232;SDS011;2130;48.472;11.934;2023-05-19T02:06:59;30.63;;;1.63;;
4232;SDS011;2130;48.472;11.934;2023-05-19T02:09:32;28.80;;;1.60;;
4232;SDS011;2130;48.472;11.934;2023-05-19T02:12:07;28.37;;;1.40;;
4232;SDS011;2130;48.472;11.934;2023-05-19T02:14:39;30.80;;;1.60;;
4232;SDS011;2130;48.472;11.934;2023-05-19T02:17:13;27.17;;;1.50;;
4232;SDS011;2130;48.472;11.934;2023-05-19T02:19:43;28.43;;;1.40;;
4232;SDS011;2130;48.472;11.934;2023-05-19T02:22:13;30.43;;;1.53;;
4232;SDS011;2130;48.472;11.934;2023-05-19T02:24:41;28.67;;;1.40;;
4232;SDS011;2130;48.472;11.934;2023-05-19T02:27:12;33.17;;;1.90;;
4232;SDS011;2130;48.472;11.934;2023-05-19T02:29:41;29.20;;;1.80;;
4232;SDS011;2130;48.472;11.934;2023-05-19T02:32:10;27.67;;;1.50;;
4232;SDS011;2130;48.472;11.934;2023-05-19T02:34:40;27.37;;;1.30;;
4232;SDS011;2130;48.472;11.934;2023-05-19T02:37:11;28.07;;;1.40;;
4232;SDS011;2130;48.472;11.934;2023-05-19T02:39:40;28.77;;;1.90;;
4232;SDS011;2130;48.472;11.934;2023-05-19T02:42:08;28.00;;;1.50;;
4232;SDS011;2130;48.472;11.934;2023-05-19T02:44:37;27.70;;;1.40;;
4232;SDS011;2130;48.472;11.934;2023-05-19T02:47:06;28.37;;;1.47;;
4232;SDS011;2130;48.472;11.934;2023-05-19T02:49:34;28.87;;;1.70;;
4232;SDS011;2130;48.472;11.934;2023-05-19T02:52:04;31.07;;;1.60;;
4232;SDS011;2130;48.472;11.934;2023-05-19T02:54:33;28.43;;;1.63;;
4232;SDS011;2130;48.472;11.934;2023-05-19T02:57:01;28.80;;;1.77;;
4232;SDS011;2130;48.472;11.934;2023-05-19T02:59:30;29.10;;;1.50;;
4232;SDS011;2130;48.472;11.934;2023-05-19T03:01:59;29.67;;;1.47;;
4232;SDS011;2130;48.472;11.934;2023-05-19T03:04:28;28.90;;;1.40;;
4232;SDS011;2130;48.472;11.934;2023-05-19T03:06:57;28.37;;;1.40;;
4232;SDS011;2130;48.472;11.934;2023-05-19T03:09:26;31.70;;;2.23;;
4232;SDS011;2130;48.472;11.934;2023-05-19T03:11:54;28.57;;;1.50;;
4232;SDS011;2130;48.472;11.934;2023-05-19T03:14:23;28.07;;;1.30;;
4232;SDS011;2130;48.472;11.934;2023-05-19T03:16:51;30.17;;;1.80;;
4232;SDS011;2130;48.472;11.934;2023-05-19T03:19:20;30.17;;;1.67;;
4232;SDS011;2130;48.472;11.934;2023-05-19T03:21:48;29.57;;;1.83;;
4232;SDS011;2130;48.472;11.934;2023-05-19T03:24:17;28.60;;;1.50;;
4232;SDS011;2130;48.472;11.934;2023-05-19T03:26:46;28.27;;;1.70;;
4232;SDS011;2130;48.472;11.934;2023-05-19T03:29:15;28.17;;;1.40;;
4232;SDS011;2130;48.472;11.934;2023-05-19T03:31:44;27.40;;;1.50;;
4232;SDS011;2130;48.472;11.934;2023-05-19T03:34:14;28.60;;;1.73;;
4232;SDS011;2130;48.472;11.934;2023-05-19T03:36:42;28.30;;;1.37;;
4232;SDS011;2130;48.472;11.934;2023-05-19T03:39:14;28.37;;;1.33;;
4232;SDS011;2130;48.472;11.934;2023-05-19T03:41:44;29.10;;;1.50;;
4232;SDS011;2130;48.472;11.934;2023-05-19T03:44:14;29.27;;;1.57;;
4232;SDS011;2130;48.472;11.934;2023-05-19T03:46:43;29.70;;;1.80;;
4232;SDS011;2130;48.472;11.934;2023-05-19T03:49:35;28.53;;;1.50;;
4232;SDS011;2130;48.472;11.934;2023-05-19T03:52:26;27.97;;;1.53;;
4232;SDS011;2130;48.472;11.934;2023-05-19T03:55:02;29.70;;;1.40;;
4232;SDS011;2130;48.472;11.934;2023-05-19T03:57:30;28.70;;;1.90;;
4232;SDS011;2130;48.472;11.934;2023-05-19T04:00:00;29.67;;;1.70;;
4232;SDS011;2130;48.472;11.934;2023-05-19T04:02:37;28.37;;;1.60;;
4232;SDS011;2130;48.472;11.934;2023-05-19T04:05:06;29.57;;;1.77;;
4232;SDS011;2130;48.472;11.934;2023-05-19T04:07:36;29.40;;;1.73;;
4232;SDS011;2130;48.472;11.934;2023-05-19T04:10:04;28.40;;;1.60;;
4232;SDS011;2130;48.472;11.934;2023-05-19T04:12:33;27.97;;;1.70;;
4232;SDS011;2130;48.472;11.934;2023-05-19T04:15:03;28.27;;;1.90;;
4232;SDS011;2130;48.472;11.934;2023-05-19T04:17:32;28.07;;;1.50;;
4232;SDS011;2130;48.472;11.934;2023-05-19T04:20:00;29.70;;;1.73;;
4232;SDS011;2130;48.472;11.934;2023-05-19T04:22:30;28.37;;;1.50;;
4232;SDS011;2130;48.472;11.934;2023-05-19T04:24:58;28.87;;;1.43;;
4232;SDS011;2130;48.472;11.934;2023-05-19T04:27:27;28.07;;;1.60;;
4232;SDS011;2130;48.472;11.934;2023-05-19T04:29:58;28.50;;;1.30;;
4232;SDS011;2130;48.472;11.934;2023-05-19T04:32:27;29.07;;;1.30;;
4232;SDS011;2130;48.472;11.934;2023-05-19T04:34:57;29.07;;;1.60;;
4232;SDS011;2130;48.472;11.934;2023-05-19T04:37:27;30.80;;;1.73;;
4232;SDS011;2130;48.472;11.934;2023-05-19T04:39:55;30.80;;;1.70;;
4232;SDS011;2130;48.472;11.934;2023-05-19T04:42:25;35.73;;;1.97;;
4232;SDS011;2130;48.472;11.934;2023-05-19T04:44:58;29.50;;;1.80;;
4232;SDS011;2130;48.472;11.934;2023-05-19T04:47:29;29.07;;;1.47;;
4232;SDS011;2130;48.472;11.934;2023-05-19T04:50:03;28.47;;;1.70;;
4232;SDS011;2130;48.472;11.934;2023-05-19T04:52:33;28.97;;;1.77;;
4232;SDS011;2130;48.472;11.934;2023-05-19T04:55:03;27.93;;;1.80;;
4232;SDS011;2130;48.472;11.934;2023-05-19T04:57:32;26.77;;;1.50;;
4232;SDS011;2130;48.472;11.934;2023-05-19T05:00:00;32.53;;;2.00;;
4232;SDS011;2130;48.472;11.934;2023-05-19T05:02:46;29.80;;;1.60;;
4232;SDS011;2130;48.472;11.934;2023-05-19T05:05:17;28.93;;;1.47;;
4232;SDS011;2130;48.472;11.934;2023-05-19T05:07:45;30.83;;;1.83;;
4232;SDS011;2130;48.472;11.934;2023-05-19T05:10:14;29.47;;;1.50;;
4232;SDS011;2130;48.472;11.934;2023-05-19T05:12:43;29.60;;;1.57;;
4232;SDS011;2130;48.472;11.934;2023-05-19T05:15:11;30.60;;;1.77;;
4232;SDS011;2130;48.472;11.934;2023-05-19T05:17:40;30.17;;;1.57;;
4232;SDS011;2130;48.472;11.934;2023-05-19T05:20:11;30.57;;;1.83;;
4232;SDS011;2130;48.472;11.934;2023-05-19T05:22:41;28.77;;;2.20;;
4232;SDS011;2130;48.472;11.934;2023-05-19T05:25:11;30.53;;;1.70;;
4232;SDS011;2130;48.472;11.934;2023-05-19T05:27:42;30.40;;;1.70;;
4232;SDS011;2130;48.472;11.934;2023-05-19T05:30:12;31.10;;;2.50;;
4232;SDS011;2130;48.472;11.934;2023-05-19T05:32:41;29.80;;;2.30;;
4232;SDS011;2130;48.472;11.934;2023-05-19T05:35:23;28.90;;;1.93;;
4232;SDS011;2130;48.472;11.934;2023-05-19T05:37:52;28.47;;;1.50;;
4232;SDS011;2130;48.472;11.934;2023-05-19T05:40:20;30.80;;;1.70;;
4232;SDS011;2130;48.472;11.934;2023-05-19T05:42:48;31.30;;;2.17;;
4232;SDS011;2130;48.472;11.934;2023-05-19T05:45:19;30.47;;;1.67;;
4232;SDS011;2130;48.472;11.934;2023-05-19T05:47:48;29.30;;;1.70;;
4232;SDS011;2130;48.472;11.934;2023-05-19T05:50:17;28.37;;;1.60;;
4232;SDS011;2130;48.472;11.934;2023-05-19T05:52:47;29.50;;;1.90;;
4232;SDS011;2130;48.472;11.934;2023-05-19T05:55:18;29.87;;;1.83;;
4232;SDS011;2130;48.472;11.934;2023-05-19T05:57:47;29.40;;;1.40;;
4232;SDS011;2130;48.472;11.934;2023-05-19T06:00:16;30.40;;;1.60;;
4232;SDS011;2130;48.472;11.934;2023-05-19T06:02:51;29.40;;;1.80;;
4232;SDS011;2130;48.472;11.934;2023-05-19T06:05:19;29.77;;;1.50;;
4232;SDS011;2130;48.472;11.934;2023-05-19T06:07:50;30.40;;;2.10;;
4232;SDS011;2130;48.472;11.934;2023-05-19T06:10:22;28.97;;;1.80;;
4232;SDS011;2130;48.472;11.934;2023-05-19T06:12:50;33.17;;;2.20;;
4232;SDS011;2130;48.472;11.934;2023-05-19T06:15:20;31.00;;;1.97;;
4232;SDS011;2130;48.472;11.934;2023-05-19T06:18:01;30.87;;;1.70;;
4232;SDS011;2130;48.472;11.934;2023-05-19T06:20:29;30.37;;;1.90;;
4232;SDS011;2130;48.472;11.934;2023-05-19T06:23:00;30.87;;;1.53;;
4232;SDS011;2130;48.472;11.934;2023-05-19T06:25:28;29.90;;;1.70;;
4232;SDS011;2130;48.472;11.934;2023-05-19T06:27:57;29.70;;;2.07;;
4232;SDS011;2130;48.472;11.934;2023-05-19T06:30:26;30.53;;;1.77;;
4232;SDS011;2130;48.472;11.934;2023-05-19T06:33:02;29.40;;;1.40;;
4232;SDS011;2130;48.472;11.934;2023-05-19T06:35:31;31.17;;;1.70;;
4232;SDS011;2130;48.472;11.934;2023-05-19T06:38:01;31.07;;;1.57;;
4232;SDS011;2130;48.472;11.934;2023-05-19T06:40:29;30.00;;;1.97;;
4232;SDS011;2130;48.472;11.934;2023-05-19T06:42:58;31.10;;;1.67;;
4232;SDS011;2130;48.472;11.934;2023-05-19T06:45:46;30.17;;;1.60;;
4232;SDS011;2130;48.472;11.934;2023-05-19T06:48:15;29.40;;;1.80;;
4232;SDS011;2130;48.472;11.934;2023-05-19T06:50:43;30.87;;;1.50;;
4232;SDS011;2130;48.472;11.934;2023-05-19T06:53:13;30.47;;;2.00;;
4232;SDS011;2130;48.472;11.934;2023-05-19T06:55:43;31.13;;;2.20;;
4232;SDS011;2130;48.472;11.934;2023-05-19T06:58:25;32.80;;;1.80;;
4232;SDS011;2130;48.472;11.934;2023-05-19T07:00:54;33.97;;;2.20;;
4232;SDS011;2130;48.472;11.934;2023-05-19T07:03:26;30.97;;;1.60;;
4232;SDS011;2130;48.472;11.934;2023-05-19T07:05:57;31.27;;;1.97;;
4232;SDS011;2130;48.472;11.934;2023-05-19T07:08:28;31.80;;;2.00;;
4232;SDS011;2130;48.472;11.934;2023-05-19T07:10:59;31.20;;;1.50;;
4232;SDS011;2130;48.472;11.934;2023-05-19T07:13:28;29.93;;;1.73;;
4232;SDS011;2130;48.472;11.934;2023-05-19T07:15:56;31.07;;;1.80;;
4232;SDS011;2130;48.472;11.934;2023-05-19T07:18:27;29.87;;;1.70;;
4232;SDS011;2130;48.472;11.934;2023-05-19T07:20:57;32.80;;;1.50;;
4232;SDS011;2130;48.472;11.934;2023-05-19T07:23:25;31.27;;;1.53;;
4232;SDS011;2130;48.472;11.934;2023-05-19T07:25:56;30.37;;;1.50;;
4232;SDS011;2130;48.472;11.934;2023-05-19T07:28:24;30.30;;;1.73;;
4232;SDS011;2130;48.472;11.934;2023-05-19T07:30:52;32.47;;;1.77;;
4232;SDS011;2130;48.472;11.934;2023-05-19T07:33:20;31.87;;;1.80;;
4232;SDS011;2130;48.472;11.934;2023-05-19T07:35:49;31.33;;;1.63;;
4232;SDS011;2130;48.472;11.934;2023-05-19T07:38:17;33.30;;;1.83;;
4232;SDS011;2130;48.472;11.934;2023-05-19T07:40:46;31.23;;;1.70;;
4232;SDS011;2130;48.472;11.934;2023-05-19T07:43:15;30.93;;;1.70;;
4232;SDS011;2130;48.472;11.934;2023-05-19T07:45:44;31.87;;;1.70;;
4232;SDS011;2130;48.472;11.934;2023-05-19T07:48:12;31.70;;;1.77;;
4232;SDS011;2130;48.472;11.934;2023-05-19T07:50:40;33.17;;;1.63;;
4232;SDS011;2130;48.472;11.934;2023-05-19T07:53:09;30.27;;;1.50;;
4232;SDS011;2130;48.472;11.934;2023-05-19T07:55:37;30.63;;;1.93;;
4232;SDS011;2130;48.472;11.934;2023-05-19T07:58:05;36.00;;;1.80;;
4232;SDS011;2130;48.472;11.934;2023-05-19T08:00:35;31.73;;;1.50;;
4232;SDS011;2130;48.472;11.934;2023-05-19T08:03:03;31.50;;;1.80;;
4232;SDS011;2130;48.472;11.934;2023-05-19T08:05:33;33.40;;;1.70;;
4232;SDS011;2130;48.472;11.934;2023-05-19T08:08:01;33.47;;;1.80;;
4232;SDS011;2130;48.472;11.934;2023-05-19T08:10:29;30.77;;;1.63;;
4232;SDS011;2130;48.472;11.934;2023-05-19T08:12:58;30.97;;;1.60;;
4232;SDS011;2130;48.472;11.934;2023-05-19T08:15:26;31.27;;;1.73;;
4232;SDS011;2130;48.472;11.934;2023-05-19T08:17:56;33.40;;;1.67;;
4232;SDS011;2130;48.472;11.934;2023-05-19T08:20:24;33.47;;;2.20;;
4232;SDS011;2130;48.472;11.934;2023-05-19T08:22:52;33.87;;;1.93;;
4232;SDS011;2130;48.472;11.934;2023-05-19T08:25:21;32.00;;;1.63;;
4232;SDS011;2130;48.472;11.934;2023-05-19T08:27:49;32.83;;;1.73;;
4232;SDS011;2130;48.472;11.934;2023-05-19T08:30:17;31.80;;;1.73;;
4232;SDS011;2130;48.472;11.934;2023-05-19T08:32:49;33.20;;;1.80;;
4232;SDS011;2130;48.472;11.934;2023-05-19T08:35:19;34.07;;;2.10;;
4232;SDS011;2130;48.472;11.934;2023-05-19T08:37:48;34.20;;;1.83;;
4232;SDS011;2130;48.472;11.934;2023-05-19T08:40:16;33.47;;;1.67;;
4232;SDS011;2130;48.472;11.934;2023-05-19T08:42:45;33.23;;;1.60;;
4232;SDS011;2130;48.472;11.934;2023-05-19T08:45:13;33.97;;;1.90;;
4232;SDS011;2130;48.472;11.934;2023-05-19T08:47:42;34.47;;;1.80;;
4232;SDS011;2130;48.472;11.934;2023-05-19T08:50:14;33.37;;;1.90;;
4232;SDS011;2130;48.472;11.934;2023-05-19T08:52:49;33.87;;;1.80;;
4232;SDS011;2130;48.472;11.934;2023-05-19T08:55:23;35.47;;;1.90;;
4232;SDS011;2130;48.472;11.934;2023-05-19T08:57:57;33.50;;;1.57;;
4232;SDS011;2130;48.472;11.934;2023-05-19T09:00:25;34.47;;;1.80;;
4232;SDS011;2130;48.472;11.934;2023-05-19T09:02:55;35.90;;;1.90;;
4232;SDS011;2130;48.472;11.934;2023-05-19T09:05:43;34.43;;;2.00;;
4232;SDS011;2130;48.472;11.934;2023-05-19T09:08:14;34.17;;;1.80;;
4232;SDS011;2130;48.472;11.934;2023-05-19T09:10:43;33.30;;;2.17;;
4232;SDS011;2130;48.472;11.934;2023-05-19T09:13:11;34.67;;;1.80;;
4232;SDS011;2130;48.472;11.934;2023-05-19T09:15:39;35.07;;;1.87;;
4232;SDS011;2130;48.472;11.934;2023-05-19T09:18:09;34.33;;;1.80;;
4232;SDS011;2130;48.472;11.934;2023-05-19T09:20:39;33.77;;;1.90;;
4232;SDS011;2130;48.472;11.934;2023-05-19T09:23:11;34.60;;;1.87;;
4232;SDS011;2130;48.472;11.934;2023-05-19T09:25:51;37.80;;;1.90;;
4232;SDS011;2130;48.472;11.934;2023-05-19T09:28:23;34.47;;;2.00;;
4232;SDS011;2130;48.472;11.934;2023-05-19T09:30:57;33.97;;;1.80;;
4232;SDS011;2130;48.472;11.934;2023-05-19T09:33:29;35.47;;;2.20;;
4232;SDS011;2130;48.472;11.934;2023-05-19T09:36:00;35.70;;;1.70;;
4232;SDS011;2130;48.472;11.934;2023-05-19T09:38:28;36.07;;;1.97;;
4232;SDS011;2130;48.472;11.934;2023-05-19T09:40:58;35.63;;;1.90;;
4232;SDS011;2130;48.472;11.934;2023-05-19T09:43:27;37.13;;;1.77;;
4232;SDS011;2130;48.472;11.934;2023-05-19T09:45:57;34.80;;;2.10;;
4232;SDS011;2130;48.472;11.934;2023-05-19T09:48:26;37.80;;;2.00;;
4232;SDS011;2130;48.472;11.934;2023-05-19T09:50:56;34.30;;;2.10;;
4232;SDS011;2130;48.472;11.934;2023-05-19T09:56:20;35.07;;;1.63;;
4232;SDS011;2130;48.472;11.934;2023-05-19T09:58:49;37.67;;;1.90;;
4232;SDS011;2130;48.472;11.934;2023-05-19T10:01:19;37.57;;;2.20;;
4232;SDS011;2130;48.472;11.934;2023-05-19T10:03:48;36.10;;;1.80;;
4232;SDS011;2130;48.472;11.934;2023-05-19T10:06:17;36.57;;;2.13;;
4232;SDS011;2130;48.472;11.934;2023-05-19T10:08:46;37.93;;;2.10;;
4232;SDS011;2130;48.472;11.934;2023-05-19T10:11:15;36.67;;;1.57;;
4232;SDS011;2130;48.472;11.934;2023-05-19T10:13:45;36.93;;;2.23;;
4232;SDS011;2130;48.472;11.934;2023-05-19T10:16:14;36.13;;;1.90;;
4232;SDS011;2130;48.472;11.934;2023-05-19T10:18:43;36.37;;;1.77;;
4232;SDS011;2130;48.472;11.934;2023-05-19T10:21:11;37.60;;;1.93;;
4232;SDS011;2130;48.472;11.934;2023-05-19T10:23:40;36.50;;;2.13;;
4232;SDS011;2130;48.472;11.934;2023-05-19T10:26:09;39.47;;;2.17;;
4232;SDS011;2130;48.472;11.934;2023-05-19T10:28:38;38.90;;;2.23;;
4232;SDS011;2130;48.472;11.934;2023-05-19T10:31:10;38.07;;;2.00;;
4232;SDS011;2130;48.472;11.934;2023-05-19T10:33:43;35.47;;;2.00;;
4232;SDS011;2130;48.472;11.934;2023-05-19T10:36:24;36.93;;;1.80;;
4232;SDS011;2130;48.472;11.934;2023-05-19T10:39:06;38.97;;;1.80;;
4232;SDS011;2130;48.472;11.934;2023-05-19T10:41:40;37.47;;;1.90;;
4232;SDS011;2130;48.472;11.934;2023-05-19T10:44:15;37.70;;;2.00;;
4232;SDS011;2130;48.472;11.934;2023-05-19T10:46:51;42.10;;;1.80;;
4232;SDS011;2130;48.472;11.934;2023-05-19T10:49:22;36.00;;;2.00;;
4232;SDS011;2130;48.472;11.934;2023-05-19T10:51:51;38.70;;;1.73;;
4232;SDS011;2130;48.472;11.934;2023-05-19T10:54:41;38.80;;;1.97;;
4232;SDS011;2130;48.472;11.934;2023-05-19T10:57:13;37.87;;;1.60;;
4232;SDS011;2130;48.472;11.934;2023-05-19T10:59:42;37.37;;;2.00;;
4232;SDS011;2130;48.472;11.934;2023-05-19T11:02:36;36.97;;;1.60;;
4232;SDS011;2130;48.472;11.934;2023-05-19T11:05:07;41.17;;;2.00;;
4232;SDS011;2130;48.472;11.934;2023-05-19T11:07:37;38.73;;;1.73;;
4232;SDS011;2130;48.472;11.934;2023-05-19T11:10:08;37.10;;;1.83;;
4232;SDS011;2130;48.472;11.934;2023-05-19T11:12:41;41.30;;;1.87;;
4232;SDS011;2130;48.472;11.934;2023-05-19T11:15:13;37.60;;;1.53;;
4232;SDS011;2130;48.472;11.934;2023-05-19T11:17:46;38.90;;;1.80;;
4232;SDS011;2130;48.472;11.934;2023-05-19T11:20:21;45.20;;;2.10;;
4232;SDS011;2130;48.472;11.934;2023-05-19T11:23:00;41.20;;;1.50;;
4232;SDS011;2130;48.472;11.934;2023-05-19T11:25:42;43.40;;;1.90;;
4232;SDS011;2130;48.472;11.934;2023-05-19T11:28:11;39.30;;;1.57;;
4232;SDS011;2130;48.472;11.934;2023-05-19T11:30:40;39.10;;;1.87;;
4232;SDS011;2130;48.472;11.934;2023-05-19T11:33:11;39.37;;;1.73;;
4232;SDS011;2130;48.472;11.934;2023-05-19T11:35:39;39.20;;;1.60;;
4232;SDS011;2130;48.472;11.934;2023-05-19T11:38:08;39.50;;;1.80;;
4232;SDS011;2130;48.472;11.934;2023-05-19T11:40:37;41.50;;;2.17;;
4232;SDS011;2130;48.472;11.934;2023-05-19T11:43:06;40.83;;;1.67;;
4232;SDS011;2130;48.472;11.934;2023-05-19T11:45:34;39.97;;;1.77;;
4232;SDS011;2130;48.472;11.934;2023-05-19T11:48:03;40.20;;;1.60;;
4232;SDS011;2130;48.472;11.934;2023-05-19T11:50:34;39.27;;;1.90;;
4232;SDS011;2130;48.472;11.934;2023-05-19T11:53:04;40.30;;;1.93;;
4232;SDS011;2130;48.472;11.934;2023-05-19T11:55:32;45.03;;;2.07;;
4232;SDS011;2130;48.472;11.934;2023-05-19T11:58:00;40.67;;;1.63;;
4232;SDS011;2130;48.472;11.934;2023-05-19T12:00:33;40.03;;;1.63;;
4232;SDS011;2130;48.472;11.934;2023-05-19T12:03:03;40.30;;;1.63;;
4232;SDS011;2130;48.472;11.934;2023-05-19T12:05:35;40.67;;;1.70;;
4232;SDS011;2130;48.472;11.934;2023-05-19T12:08:09;39.87;;;1.80;;
4232;SDS011;2130;48.472;11.934;2023-05-19T12:10:38;41.30;;;2.10;;
4232;SDS011;2130;48.472;11.934;2023-05-19T12:13:06;40.60;;;1.73;;
4232;SDS011;2130;48.472;11.934;2023-05-19T12:15:36;40.47;;;1.60;;
4232;SDS011;2130;48.472;11.934;2023-05-19T12:18:05;41.40;;;1.80;;
4232;SDS011;2130;48.472;11.934;2023-05-19T12:20:35;41.27;;;1.77;;
4232;SDS011;2130;48.472;11.934;2023-05-19T12:23:04;40.57;;;1.83;;
4232;SDS011;2130;48.472;11.934;2023-05-19T12:25:32;41.00;;;2.17;;
4232;SDS011;2130;48.472;11.934;2023-05-19T12:28:01;41.23;;;1.70;;
4232;SDS011;2130;48.472;11.934;2023-05-19T12:30:30;39.80;;;1.83;;
4232;SDS011;2130;48.472;11.934;2023-05-19T12:33:01;41.30;;;1.60;;
4232;SDS011;2130;48.472;11.934;2023-05-19T12:35:30;41.10;;;1.60;;
4232;SDS011;2130;48.472;11.934;2023-05-19T12:38:02;41.70;;;1.77;;
4232;SDS011;2130;48.472;11.934;2023-05-19T12:40:32;42.23;;;1.90;;
4232;SDS011;2130;48.472;11.934;2023-05-19T12:43:01;41.00;;;1.87;;
4232;SDS011;2130;48.472;11.934;2023-05-19T12:45:32;40.00;;;1.63;;
4232;SDS011;2130;48.472;11.934;2023-05-19T12:48:01;41.17;;;1.87;;
4232;SDS011;2130;48.472;11.934;2023-05-19T12:50:31;40.97;;;1.77;;
4232;SDS011;2130;48.472;11.934;2023-05-19T12:53:02;41.90;;;1.90;;
4232;SDS011;2130;48.472;11.934;2023-05-19T12:55:30;41.90;;;1.90;;
4232;SDS011;2130;48.472;11.934;2023-05-19T12:58:05;43.20;;;1.90;;
4232;SDS011;2130;48.472;11.934;2023-05-19T13:00:38;41.30;;;1.50;;
4232;SDS011;2130;48.472;11.934;2023-05-19T13:03:12;42.17;;;2.10;;
4232;SDS011;2130;48.472;11.934;2023-05-19T13:05:42;41.57;;;1.90;;
4232;SDS011;2130;48.472;11.934;2023-05-19T13:08:14;42.00;;;1.97;;
4232;SDS011;2130;48.472;11.934;2023-05-19T13:10:44;41.50;;;1.70;;
4232;SDS011;2130;48.472;11.934;2023-05-19T13:13:32;41.00;;;1.80;;
4232;SDS011;2130;48.472;11.934;2023-05-19T13:16:19;41.30;;;1.70;;
4232;SDS011;2130;48.472;11.934;2023-05-19T13:19:06;41.93;;;1.60;;
4232;SDS011;2130;48.472;11.934;2023-05-19T13:21:50;41.40;;;2.10;;
4232;SDS011;2130;48.472;11.934;2023-05-19T13:24:20;40.90;;;1.87;;
4232;SDS011;2130;48.472;11.934;2023-05-19T13:26:48;40.77;;;1.83;;
4232;SDS011;2130;48.472;11.934;2023-05-19T13:29:18;41.20;;;1.77;;
4232;SDS011;2130;48.472;11.934;2023-05-19T13:31:47;42.53;;;2.00;;
4232;SDS011;2130;48.472;11.934;2023-05-19T13:34:15;41.00;;;1.70;;
4232;SDS011;2130;48.472;11.934;2023-05-19T13:36:45;41.83;;;2.13;;
4232;SDS011;2130;48.472;11.934;2023-05-19T13:39:14;41.20;;;1.73;;
4232;SDS011;2130;48.472;11.934;2023-05-19T13:41:44;41.17;;;1.90;;
4232;SDS011;2130;48.472;11.934;2023-05-19T13:44:12;44.37;;;2.53;;
4232;SDS011;2130;48.472;11.934;2023-05-19T13:46:40;41.07;;;1.70;;
4232;SDS011;2130;48.472;11.934;2023-05-19T13:49:12;41.20;;;2.00;;
4232;SDS011;2130;48.472;11.934;2023-05-19T13:51:41;41.03;;;1.97;;
4232;SDS011;2130;48.472;11.934;2023-05-19T13:54:09;41.57;;;1.83;;
4232;SDS011;2130;48.472;11.934;2023-05-19T13:56:38;42.73;;;1.80;;
4232;SDS011;2130;48.472;11.934;2023-05-19T13:59:07;54.40;;;2.70;;
4232;SDS011;2130;48.472;11.934;2023-05-19T14:01:36;41.70;;;1.90;;
4232;SDS011;2130;48.472;11.934;2023-05-19T14:04:04;42.40;;;1.90;;
4232;SDS011;2130;48.472;11.934;2023-05-19T14:06:33;41.70;;;1.67;;
4232;SDS011;2130;48.472;11.934;2023-05-19T14:09:02;41.77;;;2.10;;
4232;SDS011;2130;48.472;11.934;2023-05-19T14:11:32;44.03;;;2.50;;
4232;SDS011;2130;48.472;11.934;2023-05-19T14:14:00;42.77;;;2.30;;
4232;SDS011;2130;48.472;11.934;2023-05-19T14:16:30;44.37;;;2.80;;
4232;SDS011;2130;48.472;11.934;2023-05-19T14:18:59;41.10;;;1.83;;
4232;SDS011;2130;48.472;11.934;2023-05-19T14:21:28;41.47;;;2.17;;
4232;SDS011;2130;48.472;11.934;2023-05-19T14:23:56;41.00;;;2.17;;
4232;SDS011;2130;48.472;11.934;2023-05-19T14:26:25;40.93;;;1.93;;
4232;SDS011;2130;48.472;11.934;2023-05-19T14:28:55;40.50;;;2.07;;
4232;SDS011;2130;48.472;11.934;2023-05-19T14:31:23;40.80;;;1.90;;
4232;SDS011;2130;48.472;11.934;2023-05-19T14:33:53;40.60;;;2.30;;
4232;SDS011;2130;48.472;11.934;2023-05-19T14:36:22;40.73;;;2.20;;
4232;SDS011;2130;48.472;11.934;2023-05-19T14:38:50;39.90;;;1.90;;
4232;SDS011;2130;48.472;11.934;2023-05-19T14:41:18;42.07;;;2.27;;
4232;SDS011;2130;48.472;11.934;2023-05-19T14:43:47;39.70;;;2.00;;
4232;SDS011;2130;48.472;11.934;2023-05-19T14:46:17;40.57;;;1.80;;
4232;SDS011;2130;48.472;11.934;2023-05-19T14:48:45;40.07;;;1.70;;
4232;SDS011;2130;48.472;11.934;2023-05-19T14:51:15;39.10;;;2.17;;
4232;SDS011;2130;48.472;11.934;2023-05-19T14:53:43;39.87;;;2.00;;
4232;SDS011;2130;48.472;11.934;2023-05-19T14:56:11;40.20;;;1.80;;
4232;SDS011;2130;48.472;11.934;2023-05-19T14:58:40;40.57;;;1.90;;
4232;SDS011;2130;48.472;11.934;2023-05-19T15:01:08;40.73;;;1.90;;
4232;SDS011;2130;48.472;11.934;2023-05-19T15:03:36;39.67;;;2.07;;
4232;SDS011;2130;48.472;11.934;2023-05-19T15:06:06;40.00;;;1.80;;
4232;SDS011;2130;48.472;11.934;2023-05-19T15:08:36;40.07;;;2.00;;
4232;SDS011;2130;48.472;11.934;2023-05-19T15:11:06;40.43;;;1.90;;
4232;SDS011;2130;48.472;11.934;2023-05-19T15:13:34;39.70;;;2.00;;